Time;durP1;ratioP1;P1;durP2;ratioP2;P2;SDS_P1;SDS_P2;PMS_P1;PMS_P2;Temp;Humidity;BMP_temperature;BMP_pressure;BME280_temperature;BME280_humidity;BME280_pressure;Samples;Min_cycle;Max_cycle;Signal;HPM_P1;HPM_P2
2022/11/28 00:00:19;;;;;;;;;;;;;;;;;;4427082;32;19948;-73
2022/11/28 00:02:44;;;;;;;;;;;;;;;;;;4420382;32;19938;-73
2022/11/28 00:05:09;;;;;;;;;;;;;;;;;;4419568;32;20307;-73
2022/11/28 00:07:34;;;;;;;;;;;;;;;;;;4419270;32;19933;-73
2022/11/28 00:10:00;;;;;;;;;;;;;;;;;;4420123;32;20315;-73
2022/11/28 00:12:26;;;;;;;;;;;;;;;;;;4419802;32;20234;-73
2022/11/28 00:14:51;;;;;;;;;;;;;;;;;;4419810;32;19933;-73
2022/11/28 00:17:16;;;;;;;;;;;;;;;;;;4419369;32;19975;-73
2022/11/28 00:19:41;;;;;;;;;;;;;;;;;;4421294;32;19953;-73
2022/11/28 00:22:06;;;;;;;;;;;;;;;;;;4419237;32;19941;-73
2022/11/28 00:24:31;;;;;;;;;;;;;;;;;;4419489;32;20357;-73
2022/11/28 00:26:56;;;;;;;;;;;;;;;;;;4420225;32;19967;-73
2022/11/28 00:29:22;;;;;;;;;;;;;;;;;;4426360;32;19937;-73
2022/11/28 00:31:47;;;;;;;;;;;;;;;;;;4434982;32;19964;-73
2022/11/28 00:34:12;;;;;;;;;;;;;;;;;;4435069;32;19932;-73
2022/11/28 00:36:37;;;;;;;;;;;;;;;;;;4435571;32;19948;-73
2022/11/28 00:39:02;;;;;;;;;;;;;;;;;;4435522;32;19936;-73
2022/11/28 00:41:27;;;;;;;;;;;;;;;;;;4434626;32;19968;-73
2022/11/28 00:43:52;;;;;;;;;;;;;;;;;;4435892;32;19975;-73
2022/11/28 00:46:17;;;;;;;;;;;;;;;;;;4433863;32;19972;-73
2022/11/28 00:48:42;;;;;;;;;;;;;;;;;;4435531;32;19941;-73
2022/11/28 00:51:07;;;;;;;;;;;;;;;;;;4436794;32;19964;-72
2022/11/28 00:53:32;;;;;;;;;;;;;;;;;;4436730;32;19947;-72
2022/11/28 00:55:58;;;;;;;;;;;;;;;;;;4435383;32;19956;-72
2022/11/28 00:58:23;;;;;;;;;;;;;;;;;;4434519;32;19937;-72
2022/11/28 01:00:48;;;;;;;;;;;;;;;;;;4423726;32;19993;-72
2022/11/28 01:03:13;;;;;;;;;;;;;;;;;;4421403;32;20311;-72
2022/11/28 01:05:38;;;;;;;;;;;;;;;;;;4423310;32;19933;-72
2022/11/28 01:08:03;;;;;;;;;;;;;;;;;;4423571;32;19974;-72
2022/11/28 01:10:28;;;;;;;;;;;;;;;;;;4421462;32;19937;-72
2022/11/28 01:12:53;;;;;;;;;;;;;;;;;;4422032;32;20288;-72
2022/11/28 01:15:18;;;;;;;;;;;;;;;;;;4423904;32;19996;-72
2022/11/28 01:17:43;;;;;;;;;;;;;;;;;;4424162;32;20274;-72
2022/11/28 01:20:08;;;;;;;;;;;;;;;;;;4437534;32;19933;-72
2022/11/28 01:22:33;;;;;;;;;;;;;;;;;;4437246;32;20303;-73
2022/11/28 01:24:58;;;;;;;;;;;;;;;;;;4437154;32;19944;-73
2022/11/28 01:27:24;;;;;;;;;;;;;;;;;;4436990;32;19965;-73
2022/11/28 01:29:49;;;;;;;;;;;;;;;;;;4435579;32;19960;-73
2022/11/28 01:32:14;;;;;;;;;;;;;;;;;;4439034;32;19963;-73
2022/11/28 01:34:39;;;;;;;;;;;;;;;;;;4437006;32;19986;-73
2022/11/28 01:37:04;;;;;;;;;;;;;;;;;;4437504;32;20287;-72
2022/11/28 01:39:29;;;;;;;;;;;;;;;;;;4435834;32;20831;-72
2022/11/28 01:41:54;;;;;;;;;;;;;;;;;;4437930;32;19969;-71
2022/11/28 01:44:19;;;;;;;;;;;;;;;;;;4437091;32;19992;-71
2022/11/28 01:46:44;;;;;;;;;;;;;;;;;;4437211;32;19999;-71
2022/11/28 01:49:09;;;;;;;;;;;;;;;;;;4423830;32;19941;-71
2022/11/28 01:51:34;;;;;;;;;;;;;;;;;;4405684;32;20331;-73
2022/11/28 01:54:00;;;;;;;;;;;;;;;;;;4406396;32;19933;-71
2022/11/28 01:56:25;;;;;;;;;;;;;;;;;;4407246;32;19948;-72
2022/11/28 01:58:50;;;;;;;;;;;;;;;;;;4410696;32;20004;-72
2022/11/28 02:01:15;;;;;;;;;;;;;;;;;;4434724;32;20350;-72
2022/11/28 02:03:40;;;;;;;;;;;;;;;;;;4421701;32;19933;-71
2022/11/28 02:06:05;;;;;;;;;;;;;;;;;;4421354;32;19938;-73
2022/11/28 02:08:30;;;;;;;;;;;;;;;;;;4421226;32;19979;-72
2022/11/28 02:10:55;;;;;;;;;;;;;;;;;;4421477;32;20303;-73
2022/11/28 02:13:20;;;;;;;;;;;;;;;;;;4422994;32;19993;-73
2022/11/28 02:15:45;;;;;;;;;;;;;;;;;;4423174;32;19978;-73
2022/11/28 02:18:10;;;;;;;;;;;;;;;;;;4421585;32;19933;-72
2022/11/28 02:20:35;;;;;;;;;;;;;;;;;;4421431;32;19966;-73
2022/11/28 02:23:01;;;;;;;;;;;;;;;;;;4421248;32;20302;-73
2022/11/28 02:25:26;;;;;;;;;;;;;;;;;;4420604;32;19979;-73
2022/11/28 02:27:51;;;;;;;;;;;;;;;;;;4422643;32;19974;-73
2022/11/28 02:30:16;;;;;;;;;;;;;;;;;;4421140;32;19941;-72
2022/11/28 02:32:41;;;;;;;;;;;;;;;;;;4429585;32;19933;-72
2022/11/28 02:35:06;;;;;;;;;;;;;;;;;;4422024;32;19943;-73
2022/11/28 02:37:31;;;;;;;;;;;;;;;;;;4421069;32;19941;-72
2022/11/28 02:39:56;;;;;;;;;;;;;;;;;;4410740;32;20036;-73
2022/11/28 02:42:21;;;;;;;;;;;;;;;;;;4391557;32;19953;-73
2022/11/28 02:44:46;;;;;;;;;;;;;;;;;;4405486;32;19949;-72
2022/11/28 02:47:11;;;;;;;;;;;;;;;;;;4420962;32;19978;-73
2022/11/28 02:49:37;;;;;;;;;;;;;;;;;;4422143;32;19945;-73
2022/11/28 02:52:02;;;;;;;;;;;;;;;;;;4420943;32;19980;-73
2022/11/28 02:54:27;;;;;;;;;;;;;;;;;;4421266;32;20299;-72
2022/11/28 02:56:52;;;;;;;;;;;;;;;;;;4405528;32;19956;-72
2022/11/28 02:59:17;;;;;;;;;;;;;;;;;;4421728;32;19969;-72
2022/11/28 03:01:42;;;;;;;;;;;;;;;;;;4414633;32;19933;-73
2022/11/28 03:04:07;;;;;;;;;;;;;;;;;;4391075;32;20362;-72
2022/11/28 03:06:32;;;;;;;;;;;;;;;;;;4405585;32;19937;-73
2022/11/28 03:08:57;;;;;;;;;;;;;;;;;;4407277;32;19977;-73
2022/11/28 03:11:22;;;;;;;;;;;;;;;;;;4407317;32;19993;-72
2022/11/28 03:13:47;;;;;;;;;;;;;;;;;;4393418;32;19997;-72
2022/11/28 03:16:13;;;;;;;;;;;;;;;;;;4406910;32;19933;-73
2022/11/28 03:18:38;;;;;;;;;;;;;;;;;;4406991;32;19938;-72
2022/11/28 03:21:03;;;;;;;;;;;;;;;;;;4392746;32;19946;-72
2022/11/28 03:23:28;;;;;;;;;;;;;;;;;;4404908;32;19942;-73
2022/11/28 03:25:53;;;;;;;;;;;;;;;;;;4406184;32;20302;-72
2022/11/28 03:28:18;;;;;;;;;;;;;;;;;;4407061;32;19993;-73
2022/11/28 03:30:43;;;;;;;;;;;;;;;;;;4407488;32;19952;-73
2022/11/28 03:33:09;;;;;;;;;;;;;;;;;;4406914;32;19941;-73
2022/11/28 03:35:34;;;;;;;;;;;;;;;;;;4410316;32;19945;-72
2022/11/28 03:37:59;;;;;;;;;;;;;;;;;;4405629;32;19941;-73
2022/11/28 03:40:24;;;;;;;;;;;;;;;;;;4416886;32;19974;-73
2022/11/28 03:42:49;;;;;;;;;;;;;;;;;;4407853;32;19993;-73
2022/11/28 03:45:14;;;;;;;;;;;;;;;;;;4421520;32;20243;-73
2022/11/28 03:47:39;;;;;;;;;;;;;;;;;;4421813;32;20280;-73
2022/11/28 03:50:04;;;;;;;;;;;;;;;;;;4421021;32;19934;-72
2022/11/28 03:52:30;;;;;;;;;;;;;;;;;;4420338;32;19966;-73
2022/11/28 03:54:55;;;;;;;;;;;;;;;;;;4407587;32;20336;-73
2022/11/28 03:57:20;;;;;;;;;;;;;;;;;;4421966;32;19933;-73
2022/11/28 03:59:45;;;;;;;;;;;;;;;;;;4421029;32;19944;-73
2022/11/28 04:02:10;;;;;;;;;;;;;;;;;;4422321;32;19945;-74
2022/11/28 04:04:35;;;;;;;;;;;;;;;;;;4437193;32;19996;-73
2022/11/28 04:07:00;;;;;;;;;;;;;;;;;;4434671;32;20560;-73
2022/11/28 04:09:25;;;;;;;;;;;;;;;;;;4433582;32;19955;-72
2022/11/28 04:11:50;;;;;;;;;;;;;;;;;;4435033;32;19941;-73
2022/11/28 04:14:15;;;;;;;;;;;;;;;;;;4436965;32;19936;-72
2022/11/28 04:16:40;;;;;;;;;;;;;;;;;;4436951;32;20039;-73
2022/11/28 04:19:06;;;;;;;;;;;;;;;;;;4437257;32;20287;-72
2022/11/28 04:21:31;;;;;;;;;;;;;;;;;;4436592;32;19948;-73
2022/11/28 04:23:56;;;;;;;;;;;;;;;;;;4436827;32;20302;-72
2022/11/28 04:26:21;;;;;;;;;;;;;;;;;;4435344;32;19959;-71
2022/11/28 04:28:46;;;;;;;;;;;;;;;;;;4436597;32;19960;-73
2022/11/28 04:31:11;;;;;;;;;;;;;;;;;;4435266;32;20363;-72
2022/11/28 04:33:36;;;;;;;;;;;;;;;;;;4435072;32;19993;-72
2022/11/28 04:36:02;;;;;;;;;;;;;;;;;;4435768;32;19975;-73
2022/11/28 04:38:27;;;;;;;;;;;;;;;;;;4438914;32;19932;-73
2022/11/28 04:40:52;;;;;;;;;;;;;;;;;;4437440;32;19945;-73
2022/11/28 04:43:17;;;;;;;;;;;;;;;;;;4439630;32;20074;-73
2022/11/28 04:45:42;;;;;;;;;;;;;;;;;;4438166;32;19994;-72
2022/11/28 04:48:08;;;;;;;;;;;;;;;;;;4437417;32;19972;-72
2022/11/28 04:50:33;;;;;;;;;;;;;;;;;;4438828;32;20271;-73
2022/11/28 04:52:58;;;;;;;;;;;;;;;;;;4438085;32;20071;-74
2022/11/28 04:55:23;;;;;;;;;;;;;;;;;;4439615;32;19948;-73
2022/11/28 04:57:48;;;;;;;;;;;;;;;;;;4439352;32;19979;-73
2022/11/28 05:00:13;;;;;;;;;;;;;;;;;;4438259;32;20290;-73
2022/11/28 05:02:38;;;;;;;;;;;;;;;;;;4439246;32;19936;-74
2022/11/28 05:05:03;;;;;;;;;;;;;;;;;;4437121;32;19941;-73
2022/11/28 05:07:28;;;;;;;;;;;;;;;;;;4437297;32;19948;-73
2022/11/28 05:09:54;;;;;;;;;;;;;;;;;;4438361;32;20030;-73
2022/11/28 05:12:22;;;;;;;;;;;;;;;;;;4437678;32;19937;-77
2022/11/28 05:14:47;;;;;;;;;;;;;;;;;;4439123;32;20015;-72
2022/11/28 05:17:12;;;;;;;;;;;;;;;;;;4438996;32;19956;-72
2022/11/28 05:19:38;;;;;;;;;;;;;;;;;;4435160;32;20365;-73
2022/11/28 05:22:03;;;;;;;;;;;;;;;;;;4436136;32;20303;-73
2022/11/28 05:24:28;;;;;;;;;;;;;;;;;;4438430;32;19964;-73
2022/11/28 05:26:53;;;;;;;;;;;;;;;;;;4437127;32;19937;-72
2022/11/28 05:29:18;;;;;;;;;;;;;;;;;;4438364;32;19972;-73
2022/11/28 05:31:43;;;;;;;;;;;;;;;;;;4436740;32;19952;-73
2022/11/28 05:34:08;;;;;;;;;;;;;;;;;;4437142;32;19933;-73
2022/11/28 05:36:33;;;;;;;;;;;;;;;;;;4437310;32;19970;-72
2022/11/28 05:38:58;;;;;;;;;;;;;;;;;;4435071;32;19933;-72
2022/11/28 05:41:23;;;;;;;;;;;;;;;;;;4437123;32;19974;-72
2022/11/28 05:43:48;;;;;;;;;;;;;;;;;;4424601;32;19966;-72
2022/11/28 05:46:14;;;;;;;;;;;;;;;;;;4420803;32;19944;-73
2022/11/28 05:48:39;;;;;;;;;;;;;;;;;;4421917;32;20012;-73
2022/11/28 05:51:04;;;;;;;;;;;;;;;;;;4422633;32;19933;-73
2022/11/28 05:53:29;;;;;;;;;;;;;;;;;;4423175;32;19967;-74
2022/11/28 05:55:54;;;;;;;;;;;;;;;;;;4419741;32;20308;-73
2022/11/28 05:58:19;;;;;;;;;;;;;;;;;;4422720;32;19947;-72
2022/11/28 06:00:44;;;;;;;;;;;;;;;;;;4423977;32;19952;-73
2022/11/28 06:03:09;;;;;;;;;;;;;;;;;;4435351;32;20246;-74
2022/11/28 06:05:34;;;;;;;;;;;;;;;;;;4438374;32;19975;-72
2022/11/28 06:07:59;;;;;;;;;;;;;;;;;;4436784;32;19963;-72
2022/11/28 06:10:24;;;;;;;;;;;;;;;;;;4435346;32;19956;-73
2022/11/28 06:12:50;;;;;;;;;;;;;;;;;;4431560;32;20081;-73
2022/11/28 06:15:15;;;;;;;;;;;;;;;;;;4420658;32;19941;-73
2022/11/28 06:17:40;;;;;;;;;;;;;;;;;;4421200;32;19953;-73
2022/11/28 06:20:06;;;;;;;;;;;;;;;;;;4421129;32;19952;-73
2022/11/28 06:22:31;;;;;;;;;;;;;;;;;;4422552;32;20262;-74
2022/11/28 06:24:56;;;;;;;;;;;;;;;;;;4421554;32;20307;-74
2022/11/28 06:27:21;;;;;;;;;;;;;;;;;;4421203;32;19938;-73
2022/11/28 06:29:46;;;;;;;;;;;;;;;;;;4421825;32;19937;-74
2022/11/28 06:32:11;;;;;;;;;;;;;;;;;;4421017;32;19970;-73
2022/11/28 06:34:36;;;;;;;;;;;;;;;;;;4422274;32;19933;-73
2022/11/28 06:37:01;;;;;;;;;;;;;;;;;;4419829;32;19988;-73
2022/11/28 06:39:27;;;;;;;;;;;;;;;;;;4420704;32;19968;-72
2022/11/28 06:41:52;;;;;;;;;;;;;;;;;;4421528;32;19941;-73
2022/11/28 06:44:17;;;;;;;;;;;;;;;;;;4436125;32;19944;-73
2022/11/28 06:46:42;;;;;;;;;;;;;;;;;;4437647;32;20299;-73
2022/11/28 06:49:07;;;;;;;;;;;;;;;;;;4437089;32;20114;-73
2022/11/28 06:51:32;;;;;;;;;;;;;;;;;;4437368;32;19940;-73
2022/11/28 06:53:57;;;;;;;;;;;;;;;;;;4436949;32;19983;-74
2022/11/28 06:56:22;;;;;;;;;;;;;;;;;;4437357;32;19933;-72
2022/11/28 06:58:47;;;;;;;;;;;;;;;;;;4435759;32;19975;-72
2022/11/28 07:01:12;;;;;;;;;;;;;;;;;;4435279;32;19933;-72
2022/11/28 07:03:38;;;;;;;;;;;;;;;;;;4434286;32;20065;-72
2022/11/28 07:06:03;;;;;;;;;;;;;;;;;;4422916;32;19956;-73
2022/11/28 07:08:28;;;;;;;;;;;;;;;;;;4420021;32;19968;-73
2022/11/28 07:10:53;;;;;;;;;;;;;;;;;;4427993;32;20303;-72
2022/11/28 07:13:18;;;;;;;;;;;;;;;;;;4421355;32;19933;-73
2022/11/28 07:15:43;;;;;;;;;;;;;;;;;;4423106;32;19933;-73
2022/11/28 07:18:08;;;;;;;;;;;;;;;;;;4425330;32;19981;-73
2022/11/28 07:20:33;;;;;;;;;;;;;;;;;;4425823;32;19971;-74
2022/11/28 07:22:59;;;;;;;;;;;;;;;;;;4425082;32;19941;-74
2022/11/28 07:25:24;;;;;;;;;;;;;;;;;;4419558;32;20359;-73
2022/11/28 07:27:49;;;;;;;;;;;;;;;;;;4418210;32;20009;-74
2022/11/28 07:30:14;;;;;;;;;;;;;;;;;;4419049;32;19937;-73
2022/11/28 07:32:40;;;;;;;;;;;;;;;;;;4419850;32;20308;-73
2022/11/28 07:35:07;;;;;;;;;;;;;;;;;;4419990;32;19974;-74
2022/11/28 07:37:32;;;;;;;;;;;;;;;;;;4420910;32;19962;-73
2022/11/28 07:39:57;;;;;;;;;;;;;;;;;;4421795;32;19985;-74
2022/11/28 07:42:22;;;;;;;;;;;;;;;;;;4419022;32;19949;-73
2022/11/28 07:44:47;;;;;;;;;;;;;;;;;;4422306;32;19943;-73
2022/11/28 07:47:12;;;;;;;;;;;;;;;;;;4436213;32;20324;-73
2022/11/28 07:49:37;;;;;;;;;;;;;;;;;;4435809;32;19982;-73
2022/11/28 07:52:03;;;;;;;;;;;;;;;;;;4424528;32;19932;-73
2022/11/28 07:54:28;;;;;;;;;;;;;;;;;;4435887;32;20028;-74
2022/11/28 07:56:53;;;;;;;;;;;;;;;;;;4434834;32;19932;-73
2022/11/28 07:59:18;;;;;;;;;;;;;;;;;;4436734;32;20018;-72
2022/11/28 08:01:43;;;;;;;;;;;;;;;;;;4435088;32;19933;-73
2022/11/28 08:04:08;;;;;;;;;;;;;;;;;;4435575;32;20055;-73
2022/11/28 08:06:33;;;;;;;;;;;;;;;;;;4437011;32;20007;-73
2022/11/28 08:08:58;;;;;;;;;;;;;;;;;;4435707;32;19948;-72
2022/11/28 08:11:23;;;;;;;;;;;;;;;;;;4438076;32;19947;-72
2022/11/28 08:13:48;;;;;;;;;;;;;;;;;;4437690;32;20298;-73
2022/11/28 08:16:14;;;;;;;;;;;;;;;;;;4436828;32;19960;-73
2022/11/28 08:18:39;;;;;;;;;;;;;;;;;;4438943;32;19933;-73
2022/11/28 08:21:04;;;;;;;;;;;;;;;;;;4436009;32;19948;-73
2022/11/28 08:23:29;;;;;;;;;;;;;;;;;;4436838;32;19937;-74
2022/11/28 08:25:54;;;;;;;;;;;;;;;;;;4437734;32;19933;-74
2022/11/28 08:28:19;;;;;;;;;;;;;;;;;;4437251;32;19947;-74
2022/11/28 08:30:44;;;;;;;;;;;;;;;;;;4439766;32;19962;-73
2022/11/28 08:33:10;;;;;;;;;;;;;;;;;;4436355;32;19997;-72
2022/11/28 08:35:35;;;;;;;;;;;;;;;;;;4436435;32;20018;-73
2022/11/28 08:38:00;;;;;;;;;;;;;;;;;;4439562;32;19933;-72
2022/11/28 08:40:25;;;;;;;;;;;;;;;;;;4437960;32;20259;-72
2022/11/28 08:42:50;;;;;;;;;;;;;;;;;;4418441;32;20028;-72
2022/11/28 08:45:15;;;;;;;;;;;;;;;;;;4406119;32;19974;-73
2022/11/28 08:47:40;;;;;;;;;;;;;;;;;;4419332;32;19940;-72
2022/11/28 08:50:06;;;;;;;;;;;;;;;;;;4419753;32;20400;-73
2022/11/28 08:52:31;;;;;;;;;;;;;;;;;;4407318;32;19968;-73
2022/11/28 08:54:56;;;;;;;;;;;;;;;;;;4418927;32;19948;-73
2022/11/28 08:57:21;;;;;;;;;;;;;;;;;;4420807;32;19976;-73
2022/11/28 08:59:46;;;;;;;;;;;;;;;;;;4420239;32;20007;-72
2022/11/28 09:02:11;;;;;;;;;;;;;;;;;;4416686;32;19973;-73
2022/11/28 09:04:36;;;;;;;;;;;;;;;;;;4419375;32;20001;-73
2022/11/28 09:07:01;;;;;;;;;;;;;;;;;;4419178;32;19968;-73
2022/11/28 09:09:26;;;;;;;;;;;;;;;;;;4419103;32;20052;-74
2022/11/28 09:11:52;;;;;;;;;;;;;;;;;;4421125;32;19989;-74
2022/11/28 09:14:17;;;;;;;;;;;;;;;;;;4419226;32;20427;-73
2022/11/28 09:16:42;;;;;;;;;;;;;;;;;;4420135;32;19969;-73
2022/11/28 09:19:09;;;;;;;;;;;;;;;;;;4421031;32;19973;-73
2022/11/28 09:21:34;;;;;;;;;;;;;;;;;;4418562;32;19999;-74
2022/11/28 09:23:59;;;;;;;;;;;;;;;;;;4419536;32;19961;-73
2022/11/28 09:26:24;;;;;;;;;;;;;;;;;;4418936;32;19937;-73
2022/11/28 09:28:49;;;;;;;;;;;;;;;;;;4420179;32;19941;-73
2022/11/28 09:31:15;;;;;;;;;;;;;;;;;;4418801;32;19938;-73
2022/11/28 09:33:40;;;;;;;;;;;;;;;;;;4420522;32;19937;-73
2022/11/28 09:36:05;;;;;;;;;;;;;;;;;;4420358;32;20000;-73
2022/11/28 09:38:30;;;;;;;;;;;;;;;;;;4418856;32;19956;-73
2022/11/28 09:40:55;;;;;;;;;;;;;;;;;;4420764;32;20333;-74
2022/11/28 09:43:20;;;;;;;;;;;;;;;;;;4420502;32;19941;-74
2022/11/28 09:45:45;;;;;;;;;;;;;;;;;;4418614;32;19991;-74
2022/11/28 09:48:10;;;;;;;;;;;;;;;;;;4418913;32;19937;-74
2022/11/28 09:50:35;;;;;;;;;;;;;;;;;;4419112;32;19937;-73
2022/11/28 09:53:00;;;;;;;;;;;;;;;;;;4420500;32;19937;-73
2022/11/28 09:55:26;;;;;;;;;;;;;;;;;;4420464;32;20010;-73
2022/11/28 09:57:51;;;;;;;;;;;;;;;;;;4420784;32;19988;-73
2022/11/28 10:00:16;;;;;;;;;;;;;;;;;;4419286;32;19978;-73
2022/11/28 10:02:41;;;;;;;;;;;;;;;;;;4420714;32;20243;-73
2022/11/28 10:05:06;;;;;;;;;;;;;;;;;;4418811;32;19989;-73
2022/11/28 10:07:31;;;;;;;;;;;;;;;;;;4418620;32;20083;-72
2022/11/28 10:09:56;;;;;;;;;;;;;;;;;;4406832;32;20501;-75
2022/11/28 10:12:21;;;;;;;;;;;;;;;;;;4418644;32;19949;-73
2022/11/28 10:14:46;;;;;;;;;;;;;;;;;;4419616;32;20024;-74
2022/11/28 10:17:11;;;;;;;;;;;;;;;;;;4418488;32;19988;-73
2022/11/28 10:19:37;;;;;;;;;;;;;;;;;;4406290;32;19953;-73
2022/11/28 10:22:02;;;;;;;;;;;;;;;;;;4405724;32;20374;-72
2022/11/28 10:24:27;;;;;;;;;;;;;;;;;;4419952;32;19968;-72
2022/11/28 10:26:52;;;;;;;;;;;;;;;;;;4405831;32;19983;-73
2022/11/28 10:29:17;;;;;;;;;;;;;;;;;;4418635;32;19969;-73
2022/11/28 10:31:42;;;;;;;;;;;;;;;;;;4418188;32;20002;-73
2022/11/28 10:34:07;;;;;;;;;;;;;;;;;;4419567;32;20334;-72
2022/11/28 10:36:32;;;;;;;;;;;;;;;;;;4419983;32;19953;-72
2022/11/28 10:38:57;;;;;;;;;;;;;;;;;;4419674;32;19995;-72
2022/11/28 10:41:22;;;;;;;;;;;;;;;;;;4418688;32;19933;-74
2022/11/28 10:43:47;;;;;;;;;;;;;;;;;;4418451;32;20006;-73
2022/11/28 10:46:13;;;;;;;;;;;;;;;;;;4419802;32;20359;-74
2022/11/28 10:48:38;;;;;;;;;;;;;;;;;;4419616;32;20348;-72
2022/11/28 10:51:03;;;;;;;;;;;;;;;;;;4417131;32;20080;-72
2022/11/28 10:53:28;;;;;;;;;;;;;;;;;;4418093;32;20322;-73
2022/11/28 10:55:53;;;;;;;;;;;;;;;;;;4418452;32;19974;-73
2022/11/28 10:58:18;;;;;;;;;;;;;;;;;;4419642;32;19973;-74
2022/11/28 11:00:44;;;;;;;;;;;;;;;;;;4418023;32;19937;-73
2022/11/28 11:03:09;;;;;;;;;;;;;;;;;;4404461;32;19933;-74
2022/11/28 11:05:34;;;;;;;;;;;;;;;;;;4405791;32;19955;-74
2022/11/28 11:07:59;;;;;;;;;;;;;;;;;;4419557;32;20035;-73
2022/11/28 11:10:24;;;;;;;;;;;;;;;;;;4405817;32;19953;-74
2022/11/28 11:12:50;;;;;;;;;;;;;;;;;;4418895;32;19947;-73
2022/11/28 11:15:15;;;;;;;;;;;;;;;;;;4419488;32;20295;-73
2022/11/28 11:17:40;;;;;;;;;;;;;;;;;;4418623;32;20315;-73
2022/11/28 11:20:05;;;;;;;;;;;;;;;;;;4417498;32;19960;-74
2022/11/28 11:22:31;;;;;;;;;;;;;;;;;;4419114;32;19945;-73
2022/11/28 11:24:56;;;;;;;;;;;;;;;;;;4417675;32;20326;-72
2022/11/28 11:27:21;;;;;;;;;;;;;;;;;;4422412;32;19963;-73
2022/11/28 11:29:46;;;;;;;;;;;;;;;;;;4423184;32;20070;-74
2022/11/28 11:32:11;;;;;;;;;;;;;;;;;;4419709;32;19949;-73
2022/11/28 11:34:37;;;;;;;;;;;;;;;;;;4420078;32;20594;-73
2022/11/28 11:37:02;;;;;;;;;;;;;;;;;;4432106;32;19955;-73
2022/11/28 11:39:27;;;;;;;;;;;;;;;;;;4418422;32;20004;-74
2022/11/28 11:41:52;;;;;;;;;;;;;;;;;;4419475;32;19937;-73
2022/11/28 11:44:17;;;;;;;;;;;;;;;;;;4419261;32;19933;-73
2022/11/28 11:46:42;;;;;;;;;;;;;;;;;;4421457;32;19966;-73
2022/11/28 11:49:07;;;;;;;;;;;;;;;;;;4415431;32;19981;-74
2022/11/28 11:51:34;;;;;;;;;;;;;;;;;;4416895;32;19951;-73
2022/11/28 11:53:59;;;;;;;;;;;;;;;;;;4415645;32;19975;-74
2022/11/28 11:56:24;;;;;;;;;;;;;;;;;;4416076;32;20370;-73
2022/11/28 11:58:50;;;;;;;;;;;;;;;;;;4417869;32;19959;-73
2022/11/28 12:01:15;;;;;;;;;;;;;;;;;;4417581;32;19973;-74
2022/11/28 12:03:40;;;;;;;;;;;;;;;;;;4417578;32;19987;-73
2022/11/28 12:06:05;;;;;;;;;;;;;;;;;;4417206;32;20209;-74
2022/11/28 12:08:30;;;;;;;;;;;;;;;;;;4416143;32;19998;-73
2022/11/28 12:10:55;;;;;;;;;;;;;;;;;;4417243;32;19938;-73
2022/11/28 12:13:21;;;;;;;;;;;;;;;;;;4404132;32;19985;-73
2022/11/28 12:15:46;;;;;;;;;;;;;;;;;;4417830;32;19948;-73
2022/11/28 12:18:11;;;;;;;;;;;;;;;;;;4403027;32;19972;-73
2022/11/28 12:20:36;;;;;;;;;;;;;;;;;;4417913;32;20378;-73
2022/11/28 12:23:01;;;;;;;;;;;;;;;;;;4418163;32;19951;-72
2022/11/28 12:25:26;;;;;;;;;;;;;;;;;;4417666;32;20004;-73
2022/11/28 12:27:51;;;;;;;;;;;;;;;;;;4409122;32;19941;-72
2022/11/28 12:30:16;;;;;;;;;;;;;;;;;;4413893;32;19978;-73
2022/11/28 12:32:41;;;;;;;;;;;;;;;;;;4402777;32;19940;-73
2022/11/28 12:35:07;;;;;;;;;;;;;;;;;;4418451;32;19961;-73
2022/11/28 12:37:32;;;;;;;;;;;;;;;;;;4417598;32;20173;-73
2022/11/28 12:39:58;;;;;;;;;;;;;;;;;;4420058;32;20474;-73
2022/11/28 12:42:23;;;;;;;;;;;;;;;;;;4418714;32;19945;-72
2022/11/28 12:44:49;;;;;;;;;;;;;;;;;;4419078;32;19996;-73
2022/11/28 12:47:14;;;;;;;;;;;;;;;;;;4423381;32;19940;-73
2022/11/28 12:49:39;;;;;;;;;;;;;;;;;;4436236;32;19967;-73
2022/11/28 12:52:05;;;;;;;;;;;;;;;;;;4434745;32;20331;-73
2022/11/28 12:54:30;;;;;;;;;;;;;;;;;;4435425;32;19979;-73
2022/11/28 12:56:55;;;;;;;;;;;;;;;;;;4435656;32;19937;-72
2022/11/28 12:59:21;;;;;;;;;;;;;;;;;;4438480;32;20292;-73
2022/11/28 13:01:46;;;;;;;;;;;;;;;;;;4438586;32;19937;-72
2022/11/28 13:04:11;;;;;;;;;;;;;;;;;;4438037;32;19967;-72
2022/11/28 13:06:36;;;;;;;;;;;;;;;;;;4437456;32;19969;-73
2022/11/28 13:09:01;;;;;;;;;;;;;;;;;;4421939;32;19960;-73
2022/11/28 13:11:26;;;;;;;;;;;;;;;;;;4426453;32;19975;-72
2022/11/28 13:13:52;;;;;;;;;;;;;;;;;;4421809;32;19987;-72
2022/11/28 13:16:17;;;;;;;;;;;;;;;;;;4426002;32;20329;-72
2022/11/28 13:18:42;;;;;;;;;;;;;;;;;;4424770;32;19966;-72
2022/11/28 13:21:07;;;;;;;;;;;;;;;;;;4423437;32;19976;-72
2022/11/28 13:23:32;;;;;;;;;;;;;;;;;;4420823;32;19955;-72
2022/11/28 13:25:57;;;;;;;;;;;;;;;;;;4426959;32;19952;-73
2022/11/28 13:28:22;;;;;;;;;;;;;;;;;;4423692;32;19978;-71
2022/11/28 13:30:47;;;;;;;;;;;;;;;;;;4423590;32;19944;-72
2022/11/28 13:33:13;;;;;;;;;;;;;;;;;;4428891;32;20270;-72
2022/11/28 13:35:38;;;;;;;;;;;;;;;;;;4421472;32;19976;-72
2022/11/28 13:38:03;;;;;;;;;;;;;;;;;;4423381;32;19972;-72
2022/11/28 13:40:28;;;;;;;;;;;;;;;;;;4423567;32;19992;-72
2022/11/28 13:42:53;;;;;;;;;;;;;;;;;;4432652;32;19949;-73
2022/11/28 13:45:18;;;;;;;;;;;;;;;;;;4422924;32;19975;-73
2022/11/28 13:47:43;;;;;;;;;;;;;;;;;;4421542;32;19985;-71
2022/11/28 13:50:08;;;;;;;;;;;;;;;;;;4420723;32;19972;-73
2022/11/28 13:52:34;;;;;;;;;;;;;;;;;;4432000;32;19978;-73
2022/11/28 13:55:00;;;;;;;;;;;;;;;;;;4432561;32;19960;-72
2022/11/28 13:57:25;;;;;;;;;;;;;;;;;;4421265;32;19929;-72
2022/11/28 13:59:50;;;;;;;;;;;;;;;;;;4422853;32;20099;-73
2022/11/28 14:02:15;;;;;;;;;;;;;;;;;;4421142;32;19995;-73
2022/11/28 14:04:40;;;;;;;;;;;;;;;;;;4424361;32;19999;-73
2022/11/28 14:07:05;;;;;;;;;;;;;;;;;;4438350;32;19933;-74
2022/11/28 14:09:30;;;;;;;;;;;;;;;;;;4436349;32;19951;-74
2022/11/28 14:11:56;;;;;;;;;;;;;;;;;;4437921;32;19989;-73
2022/11/28 14:14:21;;;;;;;;;;;;;;;;;;4436429;32;19984;-72
2022/11/28 14:16:46;;;;;;;;;;;;;;;;;;4437430;32;19952;-72
2022/11/28 14:19:11;;;;;;;;;;;;;;;;;;4436736;32;19945;-73
2022/11/28 14:21:36;;;;;;;;;;;;;;;;;;4436499;32;20340;-74
2022/11/28 14:24:01;;;;;;;;;;;;;;;;;;4438570;32;20204;-73
2022/11/28 14:26:27;;;;;;;;;;;;;;;;;;4437878;32;19953;-73
2022/11/28 14:28:52;;;;;;;;;;;;;;;;;;4436649;32;19941;-73
2022/11/28 14:31:17;;;;;;;;;;;;;;;;;;4437845;32;20031;-73
2022/11/28 14:33:42;;;;;;;;;;;;;;;;;;4435753;32;20002;-73
2022/11/28 14:36:07;;;;;;;;;;;;;;;;;;4436126;32;20023;-73
2022/11/28 14:38:32;;;;;;;;;;;;;;;;;;4437123;32;19989;-73
2022/11/28 14:40:57;;;;;;;;;;;;;;;;;;4433523;32;19981;-73
2022/11/28 14:43:23;;;;;;;;;;;;;;;;;;4416358;32;19955;-73
2022/11/28 14:45:48;;;;;;;;;;;;;;;;;;4420538;32;19992;-73
2022/11/28 14:48:13;;;;;;;;;;;;;;;;;;4420092;32;20031;-72
2022/11/28 14:50:38;;;;;;;;;;;;;;;;;;4420220;32;19972;-72
2022/11/28 14:53:03;;;;;;;;;;;;;;;;;;4420727;32;19937;-72
2022/11/28 14:55:28;;;;;;;;;;;;;;;;;;4408023;32;20036;-72
2022/11/28 14:57:54;;;;;;;;;;;;;;;;;;4419806;32;19967;-73
2022/11/28 15:00:19;;;;;;;;;;;;;;;;;;4421694;32;19949;-72
2022/11/28 15:02:44;;;;;;;;;;;;;;;;;;4426803;32;19964;-72
2022/11/28 15:05:09;;;;;;;;;;;;;;;;;;4420192;32;19982;-72
2022/11/28 15:07:35;;;;;;;;;;;;;;;;;;4419532;32;19988;-74
2022/11/28 15:10:00;;;;;;;;;;;;;;;;;;4421170;32;19937;-73
2022/11/28 15:12:25;;;;;;;;;;;;;;;;;;4420262;32;19998;-73
2022/11/28 15:14:50;;;;;;;;;;;;;;;;;;4419671;32;19953;-72
2022/11/28 15:17:16;;;;;;;;;;;;;;;;;;4418378;32;19976;-73
2022/11/28 15:19:41;;;;;;;;;;;;;;;;;;4418513;32;20262;-73
2022/11/28 15:22:06;;;;;;;;;;;;;;;;;;4419022;32;20239;-73
2022/11/28 15:24:31;;;;;;;;;;;;;;;;;;4420901;32;19941;-73
2022/11/28 15:26:56;;;;;;;;;;;;;;;;;;4421149;32;19984;-73
2022/11/28 15:29:21;;;;;;;;;;;;;;;;;;4421292;32;19948;-71
2022/11/28 15:31:46;;;;;;;;;;;;;;;;;;4421275;32;19937;-72
2022/11/28 15:34:11;;;;;;;;;;;;;;;;;;4418375;32;19971;-71
2022/11/28 15:36:38;;;;;;;;;;;;;;;;;;4419331;32;19945;-72
2022/11/28 15:39:03;;;;;;;;;;;;;;;;;;4420439;32;19985;-72
2022/11/28 15:41:28;;;;;;;;;;;;;;;;;;4419319;32;20078;-72
2022/11/28 15:43:53;;;;;;;;;;;;;;;;;;4420924;32;19944;-71
2022/11/28 15:46:18;;;;;;;;;;;;;;;;;;4419787;32;19977;-72
2022/11/28 15:48:43;;;;;;;;;;;;;;;;;;4420937;32;19936;-71
2022/11/28 15:51:08;;;;;;;;;;;;;;;;;;4419363;32;19987;-71
2022/11/28 15:53:33;;;;;;;;;;;;;;;;;;4420970;32;19957;-72
2022/11/28 15:55:58;;;;;;;;;;;;;;;;;;4420040;32;20006;-71
2022/11/28 15:58:29;;;;;;;;;;;;;;;;;;4437116;32;19977;-71
2022/11/28 16:00:54;;;;;;;;;;;;;;;;;;4436782;32;19947;-72
2022/11/28 16:03:19;;;;;;;;;;;;;;;;;;4436565;32;19949;-72
2022/11/28 16:05:46;;;;;;;;;;;;;;;;;;4434762;32;19937;-72
2022/11/28 16:08:11;;;;;;;;;;;;;;;;;;4435920;32;19952;-70
2022/11/28 16:10:36;;;;;;;;;;;;;;;;;;4434376;32;19937;-71
2022/11/28 16:13:01;;;;;;;;;;;;;;;;;;4434281;32;19974;-71
2022/11/28 16:15:26;;;;;;;;;;;;;;;;;;4436100;32;19981;-72
2022/11/28 16:17:51;;;;;;;;;;;;;;;;;;4434270;32;19953;-72
2022/11/28 16:20:17;;;;;;;;;;;;;;;;;;4434292;32;19947;-71
2022/11/28 16:22:42;;;;;;;;;;;;;;;;;;4434538;32;19932;-71
2022/11/28 16:25:07;;;;;;;;;;;;;;;;;;4419914;32;19970;-72
2022/11/28 16:27:32;;;;;;;;;;;;;;;;;;4420895;32;19990;-72
2022/11/28 16:29:57;;;;;;;;;;;;;;;;;;4432456;32;19940;-72